createdAt,value
2022-11-26T00:01:30.060Z,7.87
2022-11-26T00:03:59.428Z,8.43
2022-11-26T00:06:28.835Z,8.41
2022-11-26T00:08:56.315Z,8.49
2022-11-26T00:11:23.744Z,8.26
2022-11-26T00:13:51.275Z,8.50
2022-11-26T00:16:18.847Z,8.28
2022-11-26T00:18:47.806Z,7.93
2022-11-26T00:21:16.978Z,7.87
2022-11-26T00:23:44.593Z,8.10
2022-11-26T00:26:13.454Z,7.81
2022-11-26T00:28:40.956Z,7.97
2022-11-26T00:31:11.105Z,7.58
2022-11-26T00:33:38.617Z,7.95
2022-11-26T00:36:15.167Z,7.94
2022-11-26T00:38:42.703Z,7.99
2022-11-26T00:41:11.817Z,7.78
2022-11-26T00:43:39.372Z,7.50
2022-11-26T00:46:06.936Z,7.89
2022-11-26T00:48:34.461Z,7.62
2022-11-26T00:51:02.008Z,7.78
2022-11-26T00:53:30.888Z,7.42
2022-11-26T00:55:58.360Z,7.49
2022-11-26T00:58:26.612Z,7.51
2022-11-26T01:00:54.204Z,7.70
2022-11-26T01:03:21.715Z,7.84
2022-11-26T01:05:50.140Z,7.81
2022-11-26T01:08:21.060Z,7.87
2022-11-26T01:10:49.942Z,7.80
2022-11-26T01:13:17.485Z,7.60
2022-11-26T01:15:45.025Z,8.06
2022-11-26T01:18:15.918Z,7.75
2022-11-26T01:20:43.447Z,7.99
2022-11-26T01:23:11.582Z,8.11
2022-11-26T01:25:39.189Z,7.90
2022-11-26T01:28:10.863Z,7.79
2022-11-26T01:30:38.399Z,7.91
2022-11-26T01:33:05.879Z,7.99
2022-11-26T01:35:33.527Z,7.85
2022-11-26T01:38:01.065Z,7.77
2022-11-26T01:40:40.655Z,7.97
2022-11-26T01:43:12.059Z,7.92
2022-11-26T01:45:39.602Z,7.89
2022-11-26T01:48:13.668Z,7.85
2022-11-26T01:50:59.081Z,7.90
2022-11-26T01:53:31.060Z,8.00
2022-11-26T01:55:59.195Z,7.82
2022-11-26T01:58:28.988Z,7.77
2022-11-26T02:00:56.523Z,7.55
2022-11-26T02:03:24.039Z,7.72
2022-11-26T02:05:54.399Z,7.89
2022-11-26T02:08:21.891Z,7.85
2022-11-26T02:10:51.920Z,7.97
2022-11-26T02:13:19.459Z,7.59
2022-11-26T02:15:49.757Z,7.77
2022-11-26T02:18:17.312Z,7.78
2022-11-26T02:20:48.188Z,7.98
2022-11-26T02:23:33.573Z,7.88
2022-11-26T02:26:34.050Z,7.78
2022-11-26T02:29:03.371Z,7.58
2022-11-26T02:31:33.190Z,7.30
2022-11-26T02:34:02.793Z,7.92
2022-11-26T02:36:38.358Z,7.60
2022-11-26T02:39:12.220Z,7.54
2022-11-26T02:41:42.526Z,7.39
2022-11-26T02:44:10.083Z,7.52
2022-11-26T02:46:39.044Z,7.37
2022-11-26T02:49:06.519Z,7.72
2022-11-26T02:51:35.072Z,7.59
2022-11-26T02:54:02.607Z,7.47
2022-11-26T02:56:30.111Z,7.50
2022-11-26T02:58:57.854Z,7.59
2022-11-26T03:01:29.525Z,7.62
2022-11-26T03:03:59.430Z,7.41
2022-11-26T03:06:27.051Z,7.54
2022-11-26T03:08:54.675Z,7.20
2022-11-26T03:11:22.395Z,7.16
2022-11-26T03:13:49.921Z,7.32
2022-11-26T03:16:17.504Z,7.17
2022-11-26T03:18:45.015Z,7.07
2022-11-26T03:21:13.899Z,7.38
2022-11-26T03:23:41.397Z,7.48
2022-11-26T03:26:09.112Z,7.49
2022-11-26T03:28:36.687Z,7.40
2022-11-26T03:31:04.141Z,7.36
2022-11-26T03:33:31.672Z,7.11
2022-11-26T03:35:59.469Z,7.30
2022-11-26T03:38:28.377Z,6.99
2022-11-26T03:40:59.175Z,6.89
2022-11-26T03:43:26.713Z,7.02
2022-11-26T03:45:54.269Z,7.00
2022-11-26T03:48:21.768Z,6.99
2022-11-26T03:50:49.296Z,6.83
2022-11-26T03:53:16.827Z,7.12
2022-11-26T03:55:45.680Z,7.06
2022-11-26T03:58:13.168Z,7.17
2022-11-26T04:00:40.689Z,6.77
2022-11-26T04:03:08.186Z,6.94
2022-11-26T04:05:35.685Z,6.97
2022-11-26T04:08:03.159Z,7.00
2022-11-26T04:10:30.642Z,7.10
2022-11-26T04:12:59.510Z,6.85
2022-11-26T04:15:26.999Z,7.03
2022-11-26T04:17:54.521Z,6.65
2022-11-26T04:20:22.068Z,6.89
2022-11-26T04:22:49.561Z,7.14
2022-11-26T04:25:17.078Z,7.26
2022-11-26T04:27:44.612Z,6.91
2022-11-26T04:30:14.408Z,7.04
2022-11-26T04:32:41.855Z,6.67
2022-11-26T04:35:09.853Z,6.75
2022-11-26T04:37:37.367Z,6.86
2022-11-26T04:40:05.078Z,6.89
2022-11-26T04:42:33.256Z,6.84
2022-11-26T04:45:01.008Z,6.65
2022-11-26T04:47:29.835Z,7.15
2022-11-26T04:49:57.324Z,6.93
2022-11-26T04:52:24.835Z,7.05
2022-11-26T04:54:52.357Z,7.07
2022-11-26T04:57:19.808Z,7.03
2022-11-26T04:59:47.258Z,6.71
2022-11-26T05:02:14.789Z,6.85
2022-11-26T05:04:43.664Z,6.96
2022-11-26T05:07:11.235Z,6.97
2022-11-26T05:09:39.079Z,7.16
2022-11-26T05:12:06.899Z,7.13
2022-11-26T05:14:34.441Z,7.15
2022-11-26T05:17:02.061Z,7.10
2022-11-26T05:19:29.661Z,7.07
2022-11-26T05:21:58.619Z,7.21
2022-11-26T05:24:26.345Z,7.15
2022-11-26T05:26:56.808Z,7.34
2022-11-26T05:29:25.867Z,7.11
2022-11-26T05:31:53.550Z,6.94
2022-11-26T05:34:21.120Z,6.88
2022-11-26T05:36:48.787Z,6.98
2022-11-26T05:39:17.639Z,7.08
2022-11-26T05:41:45.169Z,7.26
2022-11-26T05:44:12.684Z,7.21
2022-11-26T05:46:42.488Z,7.24
2022-11-26T05:49:10.062Z,7.14
2022-11-26T05:51:37.535Z,7.34
2022-11-26T05:54:05.194Z,7.17
2022-11-26T05:56:34.111Z,7.32
2022-11-26T05:59:01.583Z,7.20
2022-11-26T06:01:29.062Z,6.85
2022-11-26T06:03:56.651Z,7.11
2022-11-26T06:06:24.445Z,7.25
2022-11-26T06:08:52.024Z,7.35
2022-11-26T06:11:19.640Z,7.00
2022-11-26T06:13:48.454Z,7.41
2022-11-26T06:16:15.977Z,7.58
2022-11-26T06:18:43.496Z,7.50
2022-11-26T06:21:11.369Z,7.36
2022-11-26T06:23:38.870Z,7.60
2022-11-26T06:26:08.221Z,7.35
2022-11-26T06:28:35.724Z,7.70
2022-11-26T06:31:04.699Z,7.24
2022-11-26T06:33:32.404Z,6.93
2022-11-26T06:36:00.337Z,7.06
2022-11-26T06:38:27.890Z,7.48
2022-11-26T06:40:59.071Z,7.53
2022-11-26T06:43:27.340Z,7.70
2022-11-26T06:45:54.912Z,7.57
2022-11-26T06:48:25.547Z,7.71
2022-11-26T06:50:53.055Z,7.39
2022-11-26T06:53:20.784Z,7.03
2022-11-26T06:55:48.345Z,7.44
2022-11-26T06:58:15.847Z,7.25
2022-11-26T07:00:43.336Z,7.28
2022-11-26T07:03:10.803Z,7.32
2022-11-26T07:05:39.697Z,7.69
2022-11-26T07:08:07.242Z,7.67
2022-11-26T07:10:34.884Z,7.68
2022-11-26T07:13:02.431Z,7.63
2022-11-26T07:15:29.909Z,7.56
2022-11-26T07:17:57.403Z,7.61
2022-11-26T07:20:24.871Z,7.37
2022-11-26T07:22:53.753Z,7.44
2022-11-26T07:25:21.264Z,7.48
2022-11-26T07:27:48.726Z,7.50
2022-11-26T07:30:16.465Z,7.41
2022-11-26T07:32:44.017Z,7.56
2022-11-26T07:35:11.466Z,7.35
2022-11-26T07:37:38.938Z,7.53
2022-11-26T07:40:08.688Z,7.71
2022-11-26T07:42:36.194Z,7.68
2022-11-26T07:45:04.644Z,7.22
2022-11-26T07:47:32.118Z,7.56
2022-11-26T07:49:59.648Z,7.59
2022-11-26T07:52:27.144Z,7.68
2022-11-26T07:54:54.644Z,7.91
2022-11-26T07:57:25.124Z,7.68
2022-11-26T07:59:52.574Z,7.45
2022-11-26T08:02:20.100Z,7.80
2022-11-26T08:04:47.694Z,7.73
2022-11-26T08:07:22.123Z,7.78
2022-11-26T08:09:53.513Z,7.65
2022-11-26T08:12:21.120Z,7.63
2022-11-26T08:14:49.943Z,7.86
2022-11-26T08:17:17.451Z,7.89
2022-11-26T08:19:44.983Z,7.90
2022-11-26T08:22:12.479Z,7.98
2022-11-26T08:24:40.578Z,7.74
2022-11-26T08:27:08.128Z,7.78
2022-11-26T08:29:37.124Z,7.90
2022-11-26T08:32:06.506Z,7.62
2022-11-26T08:34:34.526Z,7.52
2022-11-26T08:37:02.172Z,8.09
2022-11-26T08:39:29.893Z,7.96
2022-11-26T08:41:57.721Z,7.70
2022-11-26T08:44:25.496Z,8.18
2022-11-26T08:46:53.136Z,8.47
2022-11-26T08:49:22.148Z,8.44
2022-11-26T08:51:49.819Z,7.97
2022-11-26T08:54:17.483Z,7.91
2022-11-26T08:56:45.135Z,8.21
2022-11-26T08:59:12.811Z,8.42
2022-11-26T09:01:40.607Z,8.51
2022-11-26T09:04:08.470Z,8.16
2022-11-26T09:06:37.830Z,8.56
2022-11-26T09:09:17.482Z,8.46
2022-11-26T09:11:48.242Z,8.14
2022-11-26T09:14:17.307Z,8.69
2022-11-26T09:16:45.043Z,8.23
2022-11-26T09:19:14.030Z,8.71
2022-11-26T09:21:43.216Z,8.66
2022-11-26T09:24:10.902Z,8.92
2022-11-26T09:26:38.640Z,9.04
2022-11-26T09:29:06.398Z,8.73
2022-11-26T09:31:34.317Z,8.25
2022-11-26T09:34:02.674Z,8.73
2022-11-26T09:36:30.425Z,9.09
2022-11-26T09:39:00.499Z,8.43
2022-11-26T09:41:39.791Z,8.47
2022-11-26T09:44:37.973Z,8.34
2022-11-26T09:47:13.438Z,8.41
2022-11-26T09:49:49.899Z,8.15
2022-11-26T09:52:20.139Z,8.59
2022-11-26T09:54:51.402Z,9.05
2022-11-26T09:57:24.888Z,8.92
2022-11-26T09:59:53.194Z,8.84
2022-11-26T10:02:20.988Z,8.56
2022-11-26T10:04:49.134Z,9.30
2022-11-26T10:07:31.723Z,8.81
2022-11-26T10:10:06.840Z,8.43
2022-11-26T10:13:16.853Z,8.78
2022-11-26T10:15:39.423Z,8.38
2022-11-26T10:18:15.001Z,9.05
2022-11-26T10:21:01.458Z,9.42
2022-11-26T10:23:32.782Z,8.99
2022-11-26T10:26:08.740Z,8.90
2022-11-26T10:28:40.940Z,9.00
2022-11-26T10:31:20.720Z,8.98
2022-11-26T10:33:56.656Z,9.64
2022-11-26T10:36:26.800Z,9.86
2022-11-26T10:38:56.211Z,9.29
2022-11-26T10:41:27.919Z,9.53
2022-11-26T10:43:55.576Z,9.43
2022-11-26T10:46:33.746Z,9.55
2022-11-26T10:49:17.532Z,9.44
2022-11-26T10:51:48.735Z,9.48
2022-11-26T10:54:25.524Z,9.87
2022-11-26T10:56:55.291Z,10.07
2022-11-26T10:59:26.029Z,9.69
2022-11-26T11:01:57.599Z,9.74
2022-11-26T11:04:28.906Z,9.71
2022-11-26T11:06:56.997Z,9.98
2022-11-26T11:09:30.985Z,10.09
2022-11-26T11:12:23.737Z,10.59
2022-11-26T11:14:52.245Z,10.00
2022-11-26T11:17:26.648Z,10.73
2022-11-26T11:19:54.372Z,10.50
2022-11-26T11:22:22.524Z,10.67
2022-11-26T11:24:50.348Z,10.05
2022-11-26T11:27:26.388Z,10.28
2022-11-26T11:29:54.468Z,10.61
2022-11-26T11:32:35.036Z,10.83
2022-11-26T11:35:25.341Z,10.80
2022-11-26T11:37:54.624Z,10.72
2022-11-26T11:40:27.570Z,10.55
2022-11-26T11:42:58.913Z,10.91
2022-11-26T11:45:30.707Z,10.83
2022-11-26T11:48:01.383Z,10.96
2022-11-26T11:50:33.903Z,10.97
2022-11-26T11:53:10.731Z,11.03
2022-11-26T11:55:51.652Z,11.21
2022-11-26T11:58:33.613Z,11.41
2022-11-26T12:01:07.855Z,11.45
2022-11-26T12:04:08.906Z,10.98
2022-11-26T12:06:44.335Z,11.27
2022-11-26T12:09:20.324Z,11.18
2022-11-26T12:11:54.501Z,11.26
2022-11-26T12:14:25.413Z,11.13
2022-11-26T12:16:56.122Z,11.32
2022-11-26T12:19:30.648Z,11.07
2022-11-26T12:22:01.181Z,11.19
2022-11-26T12:24:33.680Z,11.04
2022-11-26T12:27:05.121Z,10.99
2022-11-26T12:29:38.334Z,10.29
2022-11-26T12:32:13.172Z,10.84
2022-11-26T12:34:44.971Z,10.96
2022-11-26T12:37:19.301Z,11.58
2022-11-26T12:39:53.801Z,10.76
2022-11-26T12:42:26.874Z,11.18
2022-11-26T12:45:01.564Z,10.79
2022-11-26T12:47:33.287Z,10.75
2022-11-26T12:50:06.796Z,10.90
2022-11-26T12:52:39.639Z,11.31
2022-11-26T12:55:15.445Z,10.93
2022-11-26T12:57:47.091Z,10.69
2022-11-26T13:00:25.240Z,11.16
2022-11-26T13:02:53.860Z,10.72
2022-11-26T13:05:27.301Z,10.93
2022-11-26T13:08:10.876Z,11.19
2022-11-26T13:10:50.396Z,11.33
2022-11-26T13:13:22.955Z,11.14
2022-11-26T13:16:03.491Z,11.20
2022-11-26T13:18:33.991Z,10.93
2022-11-26T13:21:22.103Z,11.19
2022-11-26T13:24:04.203Z,11.46
2022-11-26T13:26:44.716Z,11.26
2022-11-26T13:29:33.071Z,11.29
2022-11-26T13:32:26.118Z,11.30
2022-11-26T13:35:04.307Z,11.10
2022-11-26T13:37:50.948Z,10.68
2022-11-26T13:40:56.006Z,11.15
2022-11-26T13:44:01.033Z,11.33
2022-11-26T13:46:30.211Z,11.41
2022-11-26T13:49:02.594Z,10.79
2022-11-26T13:51:35.557Z,10.60
2022-11-26T13:54:08.800Z,10.64
2022-11-26T13:56:37.192Z,11.13
2022-11-26T13:59:07.475Z,10.90
2022-11-26T14:01:40.094Z,10.76
2022-11-26T14:04:11.336Z,11.15
2022-11-26T14:06:39.355Z,11.18
2022-11-26T14:09:07.133Z,11.15
2022-11-26T14:11:57.901Z,11.32
2022-11-26T14:14:39.048Z,10.77
2022-11-26T14:17:16.521Z,11.33
2022-11-26T14:20:02.497Z,11.06
2022-11-26T14:22:32.323Z,11.26
2022-11-26T14:25:02.355Z,11.18
2022-11-26T14:27:32.170Z,11.11
2022-11-26T14:30:20.218Z,11.37
2022-11-26T14:32:55.242Z,11.14
2022-11-26T14:35:32.255Z,11.08
2022-11-26T14:38:02.629Z,11.11
2022-11-26T14:40:31.547Z,11.16
2022-11-26T14:43:16.444Z,10.95
2022-11-26T14:45:45.276Z,10.78
2022-11-26T14:48:21.802Z,11.00
2022-11-26T14:50:51.068Z,10.93
2022-11-26T14:53:21.008Z,10.72
2022-11-26T14:55:49.214Z,11.04
2022-11-26T14:58:19.491Z,10.82
2022-11-26T15:01:02.826Z,10.60
2022-11-26T15:03:30.614Z,10.79
2022-11-26T15:05:59.659Z,10.88
2022-11-26T15:08:28.084Z,10.61
2022-11-26T15:10:57.924Z,10.75
2022-11-26T15:13:28.976Z,10.97
2022-11-26T15:15:59.069Z,10.99
2022-11-26T15:18:30.075Z,10.57
2022-11-26T15:21:00.508Z,10.91
2022-11-26T15:23:31.160Z,10.46
2022-11-26T15:26:00.339Z,10.68
2022-11-26T15:28:28.581Z,10.38
2022-11-26T15:30:58.951Z,10.77
2022-11-26T15:33:28.681Z,10.51
2022-11-26T15:35:57.794Z,10.56
2022-11-26T15:38:28.586Z,10.49
2022-11-26T15:40:58.364Z,10.86
2022-11-26T15:43:30.168Z,10.49
2022-11-26T15:46:00.052Z,10.57
2022-11-26T15:48:51.066Z,10.56
2022-11-26T15:51:23.144Z,10.60
2022-11-26T15:53:52.372Z,10.59
2022-11-26T15:56:22.115Z,10.75
2022-11-26T15:58:54.205Z,10.67
2022-11-26T16:01:24.484Z,11.01
2022-11-26T16:03:53.436Z,11.24
2022-11-26T16:06:33.030Z,11.05
2022-11-26T16:09:08.280Z,10.48
2022-11-26T16:11:37.637Z,10.75
2022-11-26T16:14:39.330Z,10.87
2022-11-26T16:17:12.351Z,10.41
2022-11-26T16:19:45.605Z,10.71
2022-11-26T16:22:15.484Z,10.37
2022-11-26T16:24:44.765Z,10.67
2022-11-26T16:27:26.682Z,10.68
2022-11-26T16:29:54.465Z,10.59
2022-11-26T16:32:22.587Z,10.56
2022-11-26T16:34:50.268Z,10.35
2022-11-26T16:37:21.191Z,10.35
2022-11-26T16:39:51.019Z,10.32
2022-11-26T16:42:20.582Z,10.43
2022-11-26T16:44:48.877Z,10.52
2022-11-26T16:47:20.197Z,10.42
2022-11-26T16:49:47.947Z,10.38
2022-11-26T16:52:17.556Z,10.03
2022-11-26T16:54:45.190Z,10.39
2022-11-26T16:57:16.446Z,10.26
2022-11-26T16:59:44.703Z,9.97
2022-11-26T17:02:16.830Z,10.22
2022-11-26T17:04:44.795Z,10.10
2022-11-26T17:07:14.051Z,9.86
2022-11-26T17:09:42.041Z,9.84
2022-11-26T17:12:18.055Z,10.16
2022-11-26T17:14:46.589Z,10.00
2022-11-26T17:17:19.207Z,10.18
2022-11-26T17:19:49.850Z,9.92
2022-11-26T17:22:17.953Z,9.73
2022-11-26T17:24:45.593Z,10.28
2022-11-26T17:27:15.302Z,10.02
2022-11-26T17:29:45.260Z,9.80
2022-11-26T17:32:14.134Z,9.85
2022-11-26T17:34:41.890Z,9.77
2022-11-26T17:37:14.520Z,9.69
2022-11-26T17:39:42.796Z,9.76
2022-11-26T17:42:10.465Z,9.38
2022-11-26T17:44:38.127Z,9.62
2022-11-26T17:47:16.872Z,9.57
2022-11-26T17:49:46.192Z,9.84
2022-11-26T17:52:13.947Z,9.39
2022-11-26T17:54:41.983Z,9.74
2022-11-26T17:57:10.757Z,9.79
2022-11-26T17:59:38.811Z,9.68
2022-11-26T18:02:08.208Z,9.87
2022-11-26T18:04:36.924Z,9.71
2022-11-26T18:07:07.489Z,9.76
2022-11-26T18:09:35.715Z,9.71
2022-11-26T18:12:03.902Z,9.46
2022-11-26T18:14:35.480Z,9.77
2022-11-26T18:17:04.325Z,9.64
2022-11-26T18:19:33.441Z,9.92
2022-11-26T18:22:01.121Z,9.51
2022-11-26T18:24:28.872Z,9.60
2022-11-26T18:26:56.850Z,9.56
2022-11-26T18:29:25.057Z,9.61
2022-11-26T18:31:53.176Z,9.43
2022-11-26T18:34:20.887Z,9.71
2022-11-26T18:36:53.719Z,9.82
2022-11-26T18:39:21.891Z,9.66
2022-11-26T18:41:49.531Z,9.92
2022-11-26T18:44:17.285Z,9.85
2022-11-26T18:46:44.968Z,9.75
2022-11-26T18:49:12.640Z,9.22
2022-11-26T18:51:40.416Z,9.68
2022-11-26T18:54:09.441Z,9.68
2022-11-26T18:56:37.352Z,9.70
2022-11-26T18:59:05.092Z,9.81
2022-11-26T19:01:33.118Z,9.91
2022-11-26T19:04:01.061Z,9.66
2022-11-26T19:06:30.632Z,9.51
2022-11-26T19:09:00.331Z,9.76
2022-11-26T19:11:29.468Z,9.58
2022-11-26T19:13:58.043Z,9.68
2022-11-26T19:16:27.438Z,9.62
2022-11-26T19:18:55.505Z,9.60
2022-11-26T19:21:25.135Z,9.53
2022-11-26T19:23:53.761Z,9.34
2022-11-26T19:26:22.200Z,9.70
2022-11-26T19:28:52.195Z,9.66
2022-11-26T19:31:21.709Z,9.83
2022-11-26T19:33:53.573Z,9.58
2022-11-26T19:36:22.088Z,9.60
2022-11-26T19:38:55.242Z,9.66
2022-11-26T19:41:25.817Z,9.62
2022-11-26T19:43:55.536Z,9.82
2022-11-26T19:46:24.960Z,9.59
2022-11-26T19:48:53.323Z,9.85
2022-11-26T19:51:22.507Z,9.76
2022-11-26T19:53:51.547Z,9.53
2022-11-26T19:56:21.016Z,9.78
2022-11-26T19:58:48.831Z,9.26
2022-11-26T20:01:18.943Z,9.76
2022-11-26T20:03:46.813Z,9.73
2022-11-26T20:06:16.948Z,9.56
2022-11-26T20:08:44.662Z,9.69
2022-11-26T20:11:12.804Z,9.49
2022-11-26T20:13:41.781Z,9.86
2022-11-26T20:16:10.796Z,9.87
2022-11-26T20:18:41.032Z,9.99
2022-11-26T20:21:11.363Z,9.51
2022-11-26T20:23:39.599Z,9.97
2022-11-26T20:26:14.848Z,9.66
2022-11-26T20:28:42.723Z,9.84
2022-11-26T20:31:10.593Z,9.54
2022-11-26T20:33:39.653Z,10.25
2022-11-26T20:36:08.311Z,9.83
2022-11-26T20:38:36.129Z,10.36
2022-11-26T20:41:07.885Z,10.29
2022-11-26T20:43:35.747Z,10.00
2022-11-26T20:46:04.245Z,10.33
2022-11-26T20:48:32.140Z,10.43
2022-11-26T20:51:03.727Z,10.09
2022-11-26T20:53:31.629Z,9.72
2022-11-26T20:55:59.464Z,10.15
2022-11-26T20:58:27.706Z,9.75
2022-11-26T21:00:56.414Z,9.57
2022-11-26T21:03:25.112Z,10.15
2022-11-26T21:05:53.243Z,10.01
2022-11-26T21:08:23.171Z,9.90
2022-11-26T21:10:51.059Z,10.29
2022-11-26T21:13:19.652Z,9.90
2022-11-26T21:15:48.411Z,9.98
2022-11-26T21:18:16.803Z,9.94
2022-11-26T21:20:44.992Z,10.05
2022-11-26T21:23:13.708Z,9.55
2022-11-26T21:25:43.980Z,10.01
2022-11-26T21:28:14.705Z,10.09
2022-11-26T21:30:43.050Z,9.71
2022-11-26T21:33:10.756Z,9.93
2022-11-26T21:35:38.960Z,9.98
2022-11-26T21:38:07.285Z,9.54
2022-11-26T21:40:34.927Z,10.08
2022-11-26T21:43:04.026Z,10.04
2022-11-26T21:45:31.684Z,9.79
2022-11-26T21:47:59.335Z,9.83
2022-11-26T21:50:27.098Z,9.69
2022-11-26T21:52:54.748Z,9.60
2022-11-26T21:55:22.652Z,9.70
2022-11-26T21:57:50.299Z,9.97
2022-11-26T22:00:20.968Z,9.66
2022-11-26T22:02:48.720Z,9.58
2022-11-26T22:05:16.699Z,9.58
2022-11-26T22:07:44.441Z,9.43
2022-11-26T22:10:12.667Z,9.63
2022-11-26T22:12:40.435Z,9.39
2022-11-26T22:15:09.290Z,9.53
2022-11-26T22:17:38.311Z,9.33
2022-11-26T22:20:08.656Z,9.45
2022-11-26T22:22:36.298Z,9.64
2022-11-26T22:25:03.971Z,9.05
2022-11-26T22:27:31.607Z,9.72
2022-11-26T22:29:59.292Z,9.46
2022-11-26T22:32:27.033Z,9.52
2022-11-26T22:34:56.024Z,9.71
2022-11-26T22:37:23.722Z,9.65
2022-11-26T22:39:53.939Z,9.54
2022-11-26T22:42:21.767Z,9.59
2022-11-26T22:44:49.395Z,9.51
2022-11-26T22:47:17.101Z,9.31
2022-11-26T22:49:44.812Z,9.15
2022-11-26T22:52:13.816Z,9.00
2022-11-26T22:54:41.495Z,9.02
2022-11-26T22:57:09.420Z,8.74
2022-11-26T22:59:37.476Z,9.08
2022-11-26T23:02:05.445Z,8.93
2022-11-26T23:04:33.157Z,8.86
2022-11-26T23:07:00.832Z,9.01
2022-11-26T23:09:29.856Z,8.96
2022-11-26T23:11:57.488Z,9.05
2022-11-26T23:14:25.192Z,8.54
2022-11-26T23:16:52.916Z,8.93
2022-11-26T23:19:20.556Z,8.69
2022-11-26T23:21:49.723Z,8.66
2022-11-26T23:24:17.594Z,8.57
2022-11-26T23:26:46.951Z,8.59
2022-11-26T23:29:14.843Z,8.62
2022-11-26T23:31:44.087Z,8.46
2022-11-26T23:34:12.262Z,8.60
2022-11-26T23:36:40.348Z,8.53
2022-11-26T23:39:10.439Z,8.43
2022-11-26T23:41:38.180Z,8.53
2022-11-26T23:44:07.301Z,8.28
2022-11-26T23:46:35.848Z,8.35
2022-11-26T23:49:04.078Z,8.14
2022-11-26T23:51:33.110Z,8.10
2022-11-26T23:54:00.995Z,8.16
2022-11-26T23:56:30.667Z,8.12
2022-11-26T23:59:00.293Z,8.21
